Truckton, Colorado
Current Conditions -  °F | °C
As of 5:56 PM on Wednesday 22 Oct 2014 (Local Time) from KABH Reporting Station
Overcast Overcast  
Wind Chill: 60°   Ceiling: 9500
Heat Index: 60°   Visibility: 10mi
Dew Point: 39°   Wind: 5mph
Humidity: 46%   Direction: 120°ESE
Pressure: 30.12"   Gusts: NA
Location:  38.697°N, 104.225°W
Report Text: KABH 222356Z AUTO 12004KT 10SM OVC095 16/04 A3012 RMK AO2 SLP165 60000 T01560039 10194 20156 53007 $
Loading
Personal Weather Stations






























Interactive Weather Map
Tropical Storm Tracking
New forecast layout! Learn more

10-Day Weather Forecast

Advertisements
Track Severe Weather on mobile